Flight Track Log - Related Links

Times and Time Zones

All times are in EDT time to prevent confusion due to time zone crossing. See the USC142 flight status page for this flight to view local times or setup timezone preferences in your user account.

Time Position Orientation Groundspeed Altitude Reporting Facility
EDT Latitude Longitude Course Direction KTS MPH feet Rate Location/Type
Mon 09:19:06 PM 42.4667 -71.3167 228° Southwest 134 154 2,400  Level KA90
Mon 09:20:05 PM 42.4333 -71.3333 200° South 143 165 3,600 992 Climbing KA90
Mon 09:21:07 PM 42.4000 -71.3833 228° Southwest 164 189 4,400 789 Climbing KA90
Mon 09:21:59 PM 42.3667 -71.4167 216° Southwest 157 181 5,100 600 Climbing KA90
Mon 09:23:07 PM 42.3333 -71.4667 228° Southwest 156 180 5,600 422 Climbing KA90
Mon 09:24:00 PM 42.3186 -71.4555 228° Southwest  Level FlightAware Approximate
Mon 09:24:07 PM 42.3000 -71.5000 216° Southwest 159 183 6,000  Level KA90
Mon 09:24:29 PM 42.2842 -71.5253 230° Southwest 162 186 6,100 92 Climbing Boston Center
Mon 09:25:12 PM 42.2594 -71.5592 225° Southwest 170 196 6,100  Level Boston Center
Mon 09:26:12 PM 42.2244 -71.6047 224° Southwest 173 199 6,100  Level Boston Center
Mon 09:27:07 PM 42.1956 -71.6497 229° Southwest 172 198 6,100  Level Boston Center
Mon 09:28:07 PM 42.1708 -71.7006 237° Southwest 170 196 6,100  Level Boston Center
Mon 09:29:08 PM 42.1461 -71.7542 238° Southwest 173 199 6,100  Level Boston Center
Mon 09:30:15 PM 42.1194 -71.8186 241° Southwest 169 194 6,100  Level Boston Center
Mon 09:31:15 PM 42.0906 -71.8722 234° Southwest 175 201 6,100  Level Boston Center
Mon 09:32:16 PM 42.0658 -71.9283 239° Southwest 178 205 6,100  Level Boston Center
Mon 09:33:17 PM 42.0389 -71.9844 237° Southwest 176 203 6,100  Level Boston Center
Mon 09:34:17 PM 42.0119 -72.0406 237° Southwest 178 205 6,100  Level Boston Center
Mon 09:35:18 PM 41.9892 -72.0967 241° Southwest 177 204 6,100  Level Boston Center
Mon 09:36:19 PM 41.9603 -72.1581 238° Southwest 186 214 6,100  Level Boston Center
Mon 09:37:19 PM 41.9356 -72.2197 242° Southwest 181 208 6,100  Level Boston Center
Mon 09:38:20 PM 41.9064 -72.2811 237° Southwest 186 214 6,100 -50 Level Boston Center
Mon 09:39:20 PM 41.8772 -72.3369 235° Southwest 184 212 6,000 -50 Descending Boston Center
Mon 09:40:21 PM 41.8503 -72.3928 237° Southwest 184 212 6,000  Level Boston Center
Mon 09:41:22 PM 41.8231 -72.4483 237° Southwest 181 208 6,000  Level Boston Center
Mon 09:42:16 PM 41.7961 -72.5042 237° Southwest 182 209 6,000  Level Boston Center
Mon 09:43:11 PM 41.7708 -72.5542 236° Southwest 184 212 6,000  Level Boston Center
Mon 09:44:12 PM 41.7417 -72.6097 235° Southwest 184 212 6,000  Level Boston Center
Mon 09:45:18 PM 41.7144 -72.6792 242° Southwest 185 213 6,000  Level Boston Center
Mon 09:46:19 PM 41.6914 -72.7375 242° Southwest 184 212 6,000  Level Boston Center
Mon 09:47:20 PM 41.6661 -72.7986 241° Southwest 180 207 6,000  Level Boston Center
Mon 09:48:20 PM 41.6369 -72.8511 233° Southwest 178 205 6,000 36 Level Boston Center
Mon 09:50:08 PM 41.5833 -72.9500 234° Southwest 186 214 6,100 36 Climbing New York TRACON
Mon 09:51:08 PM 41.5667 -73.0000 246° West 186 214 6,100 50 Level New York TRACON
Mon 09:52:08 PM 41.5333 -73.0667 236° Southwest 184 212 6,200  Climbing New York TRACON
Mon 09:53:08 PM 41.5000 -73.1167 228° Southwest 185 213 6,100 -50 Descending New York TRACON
Mon 09:54:08 PM 41.4667 -73.1667 228° Southwest 183 211 6,100  Level New York TRACON
Mon 09:55:08 PM 41.4500 -73.2333 252° West 182 209 6,100  Level New York TRACON
Mon 09:56:08 PM 41.4167 -73.2833 228° Southwest 183 211 6,100  Level New York TRACON
Mon 09:57:02 PM 41.4000 -73.3500 252° West 186 214 6,100  Level New York TRACON
Mon 09:58:08 PM 41.3667 -73.4000 228° Southwest 185 213 6,100 -250 Level New York TRACON
Mon 09:59:02 PM 41.3333 -73.4667 236° Southwest 195 224 5,600 -750 Descending New York TRACON
Mon 10:00:08 PM 41.3167 -73.5333 252° West 201 231 4,600 -750 Descending New York TRACON
Mon 10:01:02 PM 41.2833 -73.5833 228° Southwest 200 230 4,100 -200 Descending New York TRACON
Mon 10:02:08 PM 41.2667 -73.6500 252° West 176 203 4,200 -48 Climbing New York TRACON
Mon 10:03:08 PM 41.2667 -73.7167 270° West 184 212 4,000  Descending New York TRACON
Mon 10:04:02 PM 41.2667 -73.7833 270° West 174 200 4,200 100 Climbing New York TRACON
Mon 10:05:08 PM 41.2500 -73.8500 252° West 180 207 4,200 -48 Level New York TRACON
Mon 10:06:08 PM 41.2500 -73.9167 270° West 179 206 4,100 -53 Descending New York TRACON
Mon 10:07:02 PM 41.2500 -73.9833 270° West 177 204 4,100  Level New York TRACON
Mon 10:08:08 PM 41.2333 -74.0500 252° West 181 208 4,100  Level New York TRACON
Mon 10:09:02 PM 41.2000 -74.1000 228° Southwest 190 219 4,100  Level New York TRACON
Mon 10:10:02 PM 41.1667 -74.1500 228° Southwest 186 214 4,100  Level New York TRACON
Mon 10:11:02 PM 41.1500 -74.2000 246° West 181 208 4,100  Level New York TRACON
Mon 10:12:02 PM 41.1167 -74.2667 236° Southwest 187 215 4,100  Level New York TRACON
Mon 10:13:02 PM 41.0833 -74.3167 229° Southwest 189 217 4,100 -150 Level New York TRACON
Mon 10:14:02 PM 41.0333 -74.3500 207° Southwest 192 221 3,800 -476 Descending New York TRACON
Mon 10:15:08 PM 40.9833 -74.3833 207° Southwest 205 236 3,100 -350 Descending New York TRACON
Mon 10:16:02 PM 40.9333 -74.4000 194° South 195 224 3,100  Level New York TRACON
Mon 10:17:02 PM 40.8833 -74.4000 180° South 190 219 3,100  Level New York TRACON
Mon 10:18:08 PM 40.8333 -74.4000 180° South 189 217 3,100  Level New York TRACON
Mon 10:19:02 PM 40.7833 -74.3833 166° South 189 217 3,100 -368 Level New York TRACON
Mon 10:20:02 PM 40.7333 -74.3667 166° South 210 242 2,400 -476 Descending New York TRACON
Mon 10:21:08 PM 40.7167 -74.2833 105° East 176 203 2,100 -200 Descending New York TRACON
Mon 10:22:02 PM 40.7333 -74.2333 66° East 161 185 2,000 -250 Descending New York TRACON
Mon 10:23:08 PM 40.7667 -74.1833 49° Northeast 160 184 1,600 -300 Descending New York TRACON
Mon 10:24:02 PM 40.8000 -74.1500 37° Northeast 153 176 1,400 -316 Descending New York TRACON
Mon 10:25:02 PM 40.8167 -74.1167 57° Northeast 138 159 1,000 -500 Descending New York TRACON
Mon 10:26:02 PM 40.8333 -74.0833 57° Northeast 107 123 400 -600 Descending New York TRACON
Mon 10:28:00 PM 40.8500 -74.0500 60° Northeast  Level FlightAware Approximate
Mon 10:35:00 PM 40.8501 -74.0608 60° Northeast  Level Estimated

Login

Don't have an account? Register now (free) for customized features, flight alerts, and more!